createdAt,value
2023-05-17T00:00:41.713Z,96539.56
2023-05-17T00:03:11.270Z,96549.56
2023-05-17T00:05:39.698Z,96543.34
2023-05-17T00:08:09.146Z,96546.28
2023-05-17T00:10:38.010Z,96531.09
2023-05-17T00:13:06.465Z,96547.59
2023-05-17T00:15:35.693Z,96554.59
2023-05-17T00:18:05.872Z,96552.69
2023-05-17T00:20:35.192Z,96555.41
2023-05-17T00:23:04.110Z,96555.03
2023-05-17T00:25:33.544Z,96554.44
2023-05-17T00:28:01.965Z,96560.13
2023-05-17T00:30:32.023Z,96555.16
2023-05-17T00:33:00.963Z,96556.72
2023-05-17T00:35:31.246Z,96555.31
2023-05-17T00:38:00.253Z,96552.84
2023-05-17T00:40:28.632Z,96552.84
2023-05-17T00:42:57.409Z,96555.56
2023-05-17T00:45:26.165Z,96557.69
2023-05-17T00:47:55.341Z,96560.06
2023-05-17T00:50:24.114Z,96561.13
2023-05-17T00:52:54.476Z,96563.25
2023-05-17T00:55:23.582Z,96552.56
2023-05-17T00:57:53.593Z,96559.63
2023-05-17T01:00:22.120Z,96563.41
2023-05-17T01:02:53.014Z,96560.94
2023-05-17T01:05:22.012Z,96507.34
2023-05-17T01:07:50.385Z,96541.91
2023-05-17T01:10:21.801Z,96545.91
2023-05-17T01:13:04.729Z,96556.75
2023-05-17T01:15:35.871Z,96564.16
2023-05-17T01:18:13.919Z,96553.09
2023-05-17T01:20:45.508Z,96543.38
2023-05-17T01:23:37.027Z,96513.84
2023-05-17T01:26:12.400Z,96560.41
2023-05-17T01:28:44.593Z,96561.72
2023-05-17T01:31:14.322Z,96554.53
2023-05-17T01:33:44.030Z,96568.22
2023-05-17T01:36:12.964Z,96566.56
2023-05-17T01:38:41.392Z,96563.84
2023-05-17T01:41:17.907Z,96562.91
2023-05-17T01:43:52.430Z,96551.63
2023-05-17T01:46:28.197Z,96564.69
2023-05-17T01:49:07.293Z,96573.56
2023-05-17T01:51:40.895Z,96560.22
2023-05-17T01:54:12.667Z,96559.66
2023-05-17T01:56:45.635Z,96568.25
2023-05-17T01:59:21.405Z,96567.06
2023-05-17T02:01:52.111Z,96575.44
2023-05-17T02:04:20.865Z,96572.38
2023-05-17T02:06:50.349Z,96569.66
2023-05-17T02:09:19.269Z,96540.00
2023-05-17T02:11:47.699Z,96539.56
2023-05-17T02:14:18.680Z,96577.69
2023-05-17T02:16:47.244Z,96548.84
2023-05-17T02:19:16.056Z,96586.50
2023-05-17T02:21:44.458Z,96574.50
2023-05-17T02:24:13.300Z,96582.84
2023-05-17T02:26:43.358Z,96585.22
2023-05-17T02:29:12.431Z,96587.09
2023-05-17T02:31:42.623Z,96591.47
2023-05-17T02:34:12.465Z,96596.88
2023-05-17T02:36:41.412Z,96590.41
2023-05-17T02:39:09.935Z,96587.94
2023-05-17T02:41:39.861Z,96599.44
2023-05-17T02:44:08.332Z,96597.00
2023-05-17T02:46:38.668Z,96603.47
2023-05-17T02:49:08.483Z,96604.88
2023-05-17T02:51:37.793Z,96598.28
2023-05-17T02:54:06.214Z,96600.38
2023-05-17T02:56:34.962Z,96605.47
2023-05-17T02:59:03.558Z,96606.03
2023-05-17T03:01:32.729Z,96600.16
2023-05-17T03:04:01.994Z,96602.63
2023-05-17T03:06:32.373Z,96605.09
2023-05-17T03:09:01.447Z,96603.31
2023-05-17T03:11:30.353Z,96618.03
2023-05-17T03:14:08.079Z,96619.22
2023-05-17T03:16:36.478Z,96628.16
2023-05-17T03:19:05.206Z,96601.88
2023-05-17T03:21:36.473Z,96619.06
2023-05-17T03:24:06.877Z,96630.97
2023-05-17T03:26:37.326Z,96626.59
2023-05-17T03:29:06.926Z,96641.78
2023-05-17T03:31:36.155Z,96639.31
2023-05-17T03:34:04.768Z,96643.53
2023-05-17T03:36:36.451Z,96655.41
2023-05-17T03:39:05.326Z,96656.22
2023-05-17T03:41:33.994Z,96652.69
2023-05-17T03:44:03.229Z,96660.47
2023-05-17T03:46:32.660Z,96658.59
2023-05-17T03:49:01.646Z,96662.69
2023-05-17T03:51:31.291Z,96661.94
2023-05-17T03:54:03.626Z,96672.53
2023-05-17T03:56:33.404Z,96683.59
2023-05-17T03:59:01.786Z,96686.06
2023-05-17T04:01:31.058Z,96689.00
2023-05-17T04:04:01.311Z,96699.00
2023-05-17T04:06:30.558Z,96697.13
2023-05-17T04:09:00.143Z,96702.75
2023-05-17T04:11:30.007Z,96709.81
2023-05-17T04:14:00.481Z,96710.66
2023-05-17T04:16:29.040Z,96722.06
2023-05-17T04:18:58.186Z,96716.06
2023-05-17T04:21:29.913Z,96722.75
2023-05-17T04:23:59.148Z,96724.16
2023-05-17T04:26:30.884Z,96721.22
2023-05-17T04:29:00.719Z,96728.28
2023-05-17T04:31:29.517Z,96736.88
2023-05-17T04:33:57.925Z,96730.06
2023-05-17T04:36:27.871Z,96743.34
2023-05-17T04:38:56.681Z,96730.06
2023-05-17T04:41:32.042Z,96731.84
2023-05-17T04:44:01.576Z,96746.19
2023-05-17T04:46:35.723Z,96750.59
2023-05-17T04:49:04.375Z,96748.28
2023-05-17T04:51:34.935Z,96750.78
2023-05-17T04:54:07.310Z,96750.59
2023-05-17T04:56:37.949Z,96746.19
2023-05-17T04:59:11.726Z,96754.63
2023-05-17T05:01:41.101Z,96754.63
2023-05-17T05:04:09.954Z,96754.63
2023-05-17T05:06:43.543Z,96755.44
2023-05-17T05:09:12.486Z,96755.09
2023-05-17T05:11:43.122Z,96758.38
2023-05-17T05:14:12.163Z,96766.50
2023-05-17T05:16:40.941Z,96770.63
2023-05-17T05:19:10.378Z,96767.00
2023-05-17T05:21:39.273Z,96762.16
2023-05-17T05:24:09.616Z,96764.06
2023-05-17T05:26:38.130Z,96768.66
2023-05-17T05:29:09.635Z,96773.22
2023-05-17T05:31:38.151Z,96771.59
2023-05-17T05:34:08.442Z,96779.47
2023-05-17T05:36:37.721Z,96782.78
2023-05-17T05:39:07.849Z,96781.13
2023-05-17T05:41:38.470Z,96795.03
2023-05-17T05:44:08.906Z,96786.34
2023-05-17T05:46:38.127Z,96790.69
2023-05-17T05:49:07.703Z,96794.81
2023-05-17T05:51:37.167Z,96804.44
2023-05-17T05:54:05.572Z,96799.88
2023-05-17T05:56:33.968Z,96807.03
2023-05-17T05:59:02.671Z,96804.94
2023-05-17T06:01:32.554Z,96807.41
2023-05-17T06:04:01.877Z,96813.44
2023-05-17T06:06:30.430Z,96805.91
2023-05-17T06:08:59.925Z,96807.97
2023-05-17T06:11:28.459Z,96807.16
2023-05-17T06:13:59.066Z,96809.25
2023-05-17T06:16:27.575Z,96819.47
2023-05-17T06:18:57.869Z,96809.81
2023-05-17T06:21:27.424Z,96821.13
2023-05-17T06:23:55.861Z,96822.78
2023-05-17T06:26:27.428Z,96826.09
2023-05-17T06:28:55.760Z,96822.94
2023-05-17T06:31:24.633Z,96835.56
2023-05-17T06:33:53.320Z,96828.50
2023-05-17T06:36:24.986Z,96832.03
2023-05-17T06:38:53.888Z,96832.84
2023-05-17T06:41:23.217Z,96835.78
2023-05-17T06:43:52.523Z,96836.38
2023-05-17T06:46:22.127Z,96851.13
2023-05-17T06:48:51.523Z,96842.88
2023-05-17T06:51:21.002Z,96845.97
2023-05-17T06:53:52.698Z,96843.94
2023-05-17T06:56:21.126Z,96855.63
2023-05-17T06:58:49.649Z,96861.44
2023-05-17T07:01:18.790Z,96863.44
2023-05-17T07:03:48.877Z,96855.44
2023-05-17T07:06:17.319Z,96857.22
2023-05-17T07:08:54.376Z,96861.97
2023-05-17T07:11:31.943Z,96861.75
2023-05-17T07:14:01.381Z,96852.19
2023-05-17T07:16:29.762Z,96852.66
2023-05-17T07:18:58.817Z,96861.28
2023-05-17T07:21:27.261Z,96872.75
2023-05-17T07:23:57.029Z,96861.78
2023-05-17T07:26:25.674Z,96862.34
2023-05-17T07:28:54.990Z,96858.69
2023-05-17T07:31:24.335Z,96861.09
2023-05-17T07:33:53.814Z,96860.38
2023-05-17T07:36:23.849Z,96864.84
2023-05-17T07:38:52.482Z,96870.72
2023-05-17T07:41:23.318Z,96875.41
2023-05-17T07:43:53.102Z,96871.13
2023-05-17T07:46:21.480Z,96869.56
2023-05-17T07:48:50.598Z,96869.28
2023-05-17T07:51:19.084Z,96872.78
2023-05-17T07:53:48.272Z,96869.31
2023-05-17T07:56:16.614Z,96866.75
2023-05-17T07:58:46.650Z,96865.22
2023-05-17T08:01:16.070Z,96875.50
2023-05-17T08:03:47.998Z,96869.41
2023-05-17T08:06:18.636Z,96868.19
2023-05-17T08:08:47.066Z,96861.16
2023-05-17T08:11:17.286Z,96863.69
2023-05-17T08:13:49.555Z,96873.25
2023-05-17T08:16:18.968Z,96868.16
2023-05-17T08:18:47.562Z,96867.47
2023-05-17T08:21:17.657Z,96873.31
2023-05-17T08:23:46.678Z,96872.38
2023-05-17T08:26:15.239Z,96882.56
2023-05-17T08:28:44.397Z,96882.56
2023-05-17T08:31:14.151Z,96893.97
2023-05-17T08:33:43.285Z,96889.53
2023-05-17T08:36:11.726Z,96887.25
2023-05-17T08:38:41.684Z,96891.50
2023-05-17T08:41:11.221Z,96899.56
2023-05-17T08:43:40.110Z,96894.72
2023-05-17T08:46:11.504Z,96907.03
2023-05-17T08:48:43.779Z,96911.00
2023-05-17T08:51:13.421Z,96908.28
2023-05-17T08:53:42.677Z,96910.94
2023-05-17T08:56:13.716Z,96912.41
2023-05-17T08:58:55.532Z,96923.16
2023-05-17T09:01:28.386Z,96918.13
2023-05-17T09:04:01.158Z,96921.81
2023-05-17T09:06:32.934Z,96922.66
2023-05-17T09:09:01.862Z,96921.97
2023-05-17T09:11:32.973Z,96915.50
2023-05-17T09:14:02.509Z,96915.31
2023-05-17T09:16:31.695Z,96919.66
2023-05-17T09:19:02.415Z,96911.34
2023-05-17T09:21:43.981Z,96918.28
2023-05-17T09:24:12.780Z,96925.59
2023-05-17T09:26:43.129Z,96917.28
2023-05-17T09:29:13.899Z,96923.84
2023-05-17T09:31:43.550Z,96934.28
2023-05-17T09:34:14.844Z,96943.31
2023-05-17T09:36:44.579Z,96937.34
2023-05-17T09:39:15.593Z,96922.31
2023-05-17T09:41:46.983Z,96935.31
2023-05-17T09:44:17.927Z,96921.97
2023-05-17T09:46:48.016Z,96946.63
2023-05-17T09:49:19.193Z,96932.69
2023-05-17T09:51:49.813Z,96932.16
2023-05-17T09:57:10.041Z,96935.78
2023-05-17T09:59:38.985Z,96938.59
2023-05-17T10:02:15.096Z,96941.63
2023-05-17T10:04:46.287Z,96940.22
2023-05-17T10:07:15.778Z,96946.88
2023-05-17T10:09:45.874Z,96934.69
2023-05-17T10:12:18.447Z,96929.72
2023-05-17T10:14:48.152Z,96924.75
2023-05-17T10:17:18.422Z,96927.00
2023-05-17T10:19:48.772Z,96931.91
2023-05-17T10:22:23.091Z,96936.03
2023-05-17T10:24:52.665Z,96932.47
2023-05-17T10:27:23.448Z,96938.19
2023-05-17T10:29:54.696Z,96937.91
2023-05-17T10:32:27.540Z,96916.22
2023-05-17T10:35:10.159Z,96937.91
2023-05-17T10:37:41.675Z,96932.94
2023-05-17T10:40:13.996Z,96924.16
2023-05-17T10:42:48.132Z,96931.75
2023-05-17T10:45:17.556Z,96924.78
2023-05-17T10:47:47.380Z,96929.09
2023-05-17T10:50:23.464Z,96927.44
2023-05-17T10:52:54.163Z,96931.94
2023-05-17T10:55:26.157Z,96936.84
2023-05-17T10:58:18.350Z,96934.09
2023-05-17T11:00:50.087Z,96929.13
2023-05-17T11:03:21.016Z,96920.31
2023-05-17T11:06:25.356Z,96930.13
2023-05-17T11:09:09.465Z,96938.94
2023-05-17T11:11:38.334Z,96929.41
2023-05-17T11:14:08.549Z,96926.19
2023-05-17T11:16:39.075Z,96923.25
2023-05-17T11:19:09.356Z,96927.94
2023-05-17T11:21:47.276Z,96923.44
2023-05-17T11:24:22.286Z,96921.44
2023-05-17T11:26:52.117Z,96922.47
2023-05-17T11:29:20.577Z,96924.00
2023-05-17T11:31:53.747Z,96925.69
2023-05-17T11:34:25.609Z,96919.09
2023-05-17T11:36:58.136Z,96923.00
2023-05-17T11:39:26.974Z,96923.16
2023-05-17T11:41:57.648Z,96926.78
2023-05-17T11:44:30.898Z,96921.97
2023-05-17T11:47:04.906Z,96917.56
2023-05-17T11:49:36.735Z,96918.47
2023-05-17T11:52:08.822Z,96926.59
2023-05-17T11:54:43.306Z,96928.31
2023-05-17T11:57:12.838Z,96919.84
2023-05-17T11:59:43.631Z,96909.66
2023-05-17T12:02:27.012Z,96919.72
2023-05-17T12:04:57.305Z,96922.06
2023-05-17T12:07:28.140Z,96919.19
2023-05-17T12:09:57.327Z,96931.09
2023-05-17T12:12:27.172Z,96939.66
2023-05-17T12:14:56.538Z,96931.00
2023-05-17T12:17:33.236Z,96937.69
2023-05-17T12:20:08.391Z,96935.00
2023-05-17T12:25:29.805Z,96923.72
2023-05-17T12:28:17.821Z,96934.50
2023-05-17T12:30:47.011Z,96936.34
2023-05-17T12:33:16.780Z,96913.81
2023-05-17T12:35:45.946Z,96940.56
2023-05-17T12:38:15.845Z,96932.31
2023-05-17T12:40:47.262Z,96926.50
2023-05-17T12:43:16.465Z,96938.09
2023-05-17T12:45:45.246Z,96934.34
2023-05-17T12:48:13.734Z,96941.19
2023-05-17T12:50:45.805Z,96944.91
2023-05-17T12:53:14.267Z,96936.75
2023-05-17T12:55:42.825Z,96934.97
2023-05-17T12:58:12.949Z,96938.91
2023-05-17T13:00:42.206Z,96912.50
2023-05-17T13:03:11.677Z,96934.00
2023-05-17T13:05:44.851Z,96936.69
2023-05-17T13:08:22.841Z,96935.72
2023-05-17T13:10:52.086Z,96932.47
2023-05-17T13:13:23.033Z,96931.97
2023-05-17T13:15:51.796Z,96932.75
2023-05-17T13:18:21.334Z,96924.41
2023-05-17T13:20:51.884Z,96931.78
2023-05-17T13:23:20.728Z,96931.78
2023-05-17T13:25:49.157Z,96908.13
2023-05-17T13:28:19.086Z,96925.81
2023-05-17T13:30:52.113Z,96934.75
2023-05-17T13:33:21.136Z,96921.97
2023-05-17T13:35:49.687Z,96926.28
2023-05-17T13:38:18.537Z,96923.06
2023-05-17T13:40:46.967Z,96914.50
2023-05-17T13:43:16.507Z,96928.56
2023-05-17T13:45:44.952Z,96921.75
2023-05-17T13:48:15.198Z,96914.84
2023-05-17T13:50:44.260Z,96921.22
2023-05-17T13:53:13.432Z,96921.41
2023-05-17T13:55:41.772Z,96917.81
2023-05-17T13:58:11.696Z,96928.84
2023-05-17T14:00:42.638Z,96927.66
2023-05-17T14:03:12.202Z,96929.00
2023-05-17T14:05:43.081Z,96919.72
2023-05-17T14:08:12.772Z,96928.66
2023-05-17T14:10:41.140Z,96932.59
2023-05-17T14:13:09.903Z,96924.72
2023-05-17T14:15:39.518Z,96929.41
2023-05-17T14:18:09.218Z,96920.78
2023-05-17T14:20:37.778Z,96926.34
2023-05-17T14:23:08.541Z,96929.78
2023-05-17T14:25:36.953Z,96931.28
2023-05-17T14:28:06.367Z,96928.44
2023-05-17T14:30:34.714Z,96932.22
2023-05-17T14:33:03.812Z,96931.84
2023-05-17T14:35:32.308Z,96931.19
2023-05-17T14:38:01.119Z,96939.75
2023-05-17T14:40:31.718Z,96936.97
2023-05-17T14:43:00.597Z,96940.53
2023-05-17T14:45:29.581Z,96943.88
2023-05-17T14:47:57.904Z,96949.59
2023-05-17T14:50:26.921Z,96947.59
2023-05-17T14:52:55.646Z,96941.84
2023-05-17T14:55:27.314Z,96946.44
2023-05-17T14:57:57.913Z,96946.75
2023-05-17T15:00:27.486Z,96952.22
2023-05-17T15:02:56.023Z,96948.09
2023-05-17T15:05:25.083Z,96941.84
2023-05-17T15:07:55.361Z,96940.16
2023-05-17T15:10:23.979Z,96933.66
2023-05-17T15:12:53.592Z,96931.19
2023-05-17T15:15:23.285Z,96937.19
2023-05-17T15:17:52.478Z,96934.41
2023-05-17T15:20:21.055Z,96938.69
2023-05-17T15:22:50.014Z,96937.41
2023-05-17T15:25:18.840Z,96943.31
2023-05-17T15:27:49.097Z,96935.84
2023-05-17T15:30:18.759Z,96935.41
2023-05-17T15:32:49.022Z,96942.06
2023-05-17T15:35:17.459Z,96941.38
2023-05-17T15:37:48.288Z,96934.56
2023-05-17T15:40:17.853Z,96947.66
2023-05-17T15:42:46.507Z,96956.66
2023-05-17T15:45:15.241Z,96959.91
2023-05-17T15:47:44.057Z,96952.91
2023-05-17T15:50:14.930Z,96957.44
2023-05-17T15:52:43.702Z,96957.00
2023-05-17T15:55:12.827Z,96957.03
2023-05-17T15:57:42.306Z,96951.03
2023-05-17T16:00:11.862Z,96961.47
2023-05-17T16:02:41.038Z,96956.53
2023-05-17T16:05:10.759Z,96940.41
2023-05-17T16:07:40.522Z,96954.59
2023-05-17T16:10:11.179Z,96958.69
2023-05-17T16:12:40.065Z,96952.66
2023-05-17T16:15:10.792Z,96957.78
2023-05-17T16:17:39.301Z,96960.72
2023-05-17T16:20:09.097Z,96958.47
2023-05-17T16:22:38.358Z,96966.44
2023-05-17T16:25:08.817Z,96967.06
2023-05-17T16:27:38.195Z,96965.69
2023-05-17T16:30:08.178Z,96970.38
2023-05-17T16:32:37.396Z,96971.22
2023-05-17T16:35:06.508Z,96973.63
2023-05-17T16:37:35.849Z,96973.91
2023-05-17T16:40:04.565Z,96969.81
2023-05-17T16:42:34.711Z,96977.81
2023-05-17T16:45:04.907Z,96979.53
2023-05-17T16:47:34.925Z,96981.22
2023-05-17T16:50:05.083Z,96982.31
2023-05-17T16:52:34.671Z,96978.50
2023-05-17T16:55:04.110Z,96974.09
2023-05-17T16:57:34.794Z,96980.69
2023-05-17T17:00:03.855Z,96988.34
2023-05-17T17:02:32.808Z,96983.63
2023-05-17T17:05:01.237Z,96988.81
2023-05-17T17:07:30.402Z,96985.47
2023-05-17T17:09:58.815Z,96986.53
2023-05-17T17:12:28.254Z,96986.22
2023-05-17T17:14:58.718Z,96984.28
2023-05-17T17:17:27.996Z,96993.00
2023-05-17T17:19:56.436Z,96985.22
2023-05-17T17:22:24.944Z,96985.72
2023-05-17T17:24:53.519Z,96983.09
2023-05-17T17:27:22.260Z,97007.34
2023-05-17T17:29:50.603Z,96976.28
2023-05-17T17:32:21.298Z,97006.66
2023-05-17T17:34:49.642Z,97009.00
2023-05-17T17:37:18.795Z,97017.47
2023-05-17T17:39:47.129Z,96999.03
2023-05-17T17:42:15.647Z,97014.91
2023-05-17T17:44:43.962Z,97016.81
2023-05-17T17:47:13.457Z,97019.28
2023-05-17T17:49:43.292Z,97019.75
2023-05-17T17:52:12.117Z,97017.22
2023-05-17T17:54:40.564Z,97012.50
2023-05-17T17:57:10.046Z,97017.06
2023-05-17T17:59:39.349Z,97004.06
2023-05-17T18:02:08.079Z,97010.59
2023-05-17T18:04:37.440Z,97020.13
2023-05-17T18:07:07.808Z,97023.94
2023-05-17T18:09:36.756Z,97022.78
2023-05-17T18:12:05.974Z,97026.28
2023-05-17T18:14:34.809Z,97036.06
2023-05-17T18:17:04.843Z,97027.06
2023-05-17T18:19:33.206Z,97028.63
2023-05-17T18:22:02.554Z,97031.00
2023-05-17T18:24:32.436Z,97028.19
2023-05-17T18:27:01.357Z,97028.38
2023-05-17T18:29:29.683Z,97027.25
2023-05-17T18:32:00.010Z,97025.28
2023-05-17T18:34:28.637Z,97027.09
2023-05-17T18:36:58.412Z,97033.59
2023-05-17T18:39:26.816Z,97022.59
2023-05-17T18:41:56.550Z,97036.72
2023-05-17T18:44:24.909Z,97041.03
2023-05-17T18:46:53.923Z,97035.03
2023-05-17T18:49:23.396Z,97041.22
2023-05-17T18:51:51.768Z,97035.41
2023-05-17T18:54:21.244Z,97051.47
2023-05-17T18:56:49.598Z,97050.06
2023-05-17T18:59:20.727Z,97048.91
2023-05-17T19:01:49.044Z,97055.94
2023-05-17T19:04:18.212Z,97050.16
2023-05-17T19:06:47.085Z,97055.16
2023-05-17T19:09:16.473Z,97058.06
2023-05-17T19:11:44.822Z,97051.22
2023-05-17T19:14:15.190Z,97051.94
2023-05-17T19:16:45.472Z,97057.03
2023-05-17T19:19:13.936Z,97053.66
2023-05-17T19:21:42.292Z,97058.22
2023-05-17T19:24:10.608Z,97055.16
2023-05-17T19:26:39.499Z,97054.56
2023-05-17T19:29:08.802Z,97050.94
2023-05-17T19:31:37.242Z,97048.72
2023-05-17T19:34:07.431Z,97057.34
2023-05-17T19:36:36.228Z,97061.16
2023-05-17T19:39:04.631Z,97064.63
2023-05-17T19:41:34.210Z,97068.06
2023-05-17T19:44:03.081Z,97066.06
2023-05-17T19:46:31.452Z,97070.34
2023-05-17T19:49:00.636Z,97063.63
2023-05-17T19:51:30.295Z,97070.06
2023-05-17T19:53:59.240Z,97073.50
2023-05-17T19:56:27.661Z,97069.03
2023-05-17T19:58:57.039Z,97080.63
2023-05-17T20:01:25.392Z,97076.25
2023-05-17T20:03:54.778Z,97072.84
2023-05-17T20:06:23.251Z,97075.47
2023-05-17T20:08:53.307Z,97083.53
2023-05-17T20:11:21.667Z,97079.50
2023-05-17T20:13:50.597Z,97075.16
2023-05-17T20:16:19.400Z,97086.25
2023-05-17T20:18:48.080Z,97089.69
2023-05-17T20:21:20.215Z,97089.81
2023-05-17T20:23:48.593Z,97090.06
2023-05-17T20:29:12.605Z,97085.31
2023-05-17T20:31:41.070Z,97082.59
2023-05-17T20:34:09.428Z,97078.34
2023-05-17T20:36:38.777Z,97078.72
2023-05-17T20:39:07.276Z,97075.78
2023-05-17T20:41:37.607Z,97072.00
2023-05-17T20:44:06.283Z,97066.56
2023-05-17T20:46:35.931Z,97071.88
2023-05-17T20:49:04.730Z,97075.66
2023-05-17T20:51:33.578Z,97079.53
2023-05-17T20:54:02.354Z,97087.56
2023-05-17T20:56:31.088Z,97068.31
2023-05-17T20:59:01.709Z,97082.94
2023-05-17T21:01:30.203Z,97081.63
2023-05-17T21:03:59.715Z,97069.09
2023-05-17T21:06:30.946Z,97080.16
2023-05-17T21:09:02.466Z,97076.97
2023-05-17T21:11:31.124Z,97071.63
2023-05-17T21:14:02.049Z,97078.13
2023-05-17T21:16:30.798Z,97071.94
2023-05-17T21:19:00.273Z,97078.84
2023-05-17T21:21:28.814Z,97079.09
2023-05-17T21:23:57.572Z,97080.38
2023-05-17T21:29:02.575Z,97076.00
2023-05-17T21:31:32.497Z,97083.53
2023-05-17T21:34:00.993Z,97080.00
2023-05-17T21:36:29.766Z,97074.44
2023-05-17T21:38:58.108Z,97071.72
2023-05-17T21:41:27.246Z,97080.91
2023-05-17T21:43:55.707Z,97079.72
2023-05-17T21:46:26.309Z,97080.56
2023-05-17T21:48:54.704Z,97083.47
2023-05-17T21:51:23.410Z,97086.44
2023-05-17T21:53:52.681Z,97083.44
2023-05-17T21:56:21.810Z,97082.69
2023-05-17T21:58:52.317Z,97084.19
2023-05-17T22:01:24.144Z,97073.91
2023-05-17T22:03:55.570Z,97081.94
2023-05-17T22:06:23.971Z,97083.44
2023-05-17T22:08:53.161Z,97080.72
2023-05-17T22:11:22.833Z,97076.84
2023-05-17T22:13:52.234Z,97077.44
2023-05-17T22:16:22.463Z,97079.19
2023-05-17T22:18:52.800Z,97074.59
2023-05-17T22:21:22.663Z,97068.09
2023-05-17T22:23:51.574Z,97069.75
2023-05-17T22:26:20.103Z,97072.03
2023-05-17T22:28:49.498Z,97071.66
2023-05-17T22:31:18.840Z,97071.72
2023-05-17T22:33:47.822Z,97060.34
2023-05-17T22:36:17.720Z,97060.34
2023-05-17T22:38:47.976Z,97065.19
2023-05-17T22:41:16.317Z,97072.69
2023-05-17T22:43:45.454Z,97065.09
2023-05-17T22:46:14.220Z,97066.38
2023-05-17T22:48:43.214Z,97065.38
2023-05-17T22:51:12.706Z,97069.97
2023-05-17T22:53:41.493Z,97059.19
2023-05-17T22:56:11.405Z,97070.03
2023-05-17T22:58:41.065Z,97067.09
2023-05-17T23:01:10.610Z,97057.78
2023-05-17T23:03:40.076Z,97054.00
2023-05-17T23:06:09.547Z,97055.13
2023-05-17T23:08:39.013Z,97059.09
2023-05-17T23:11:09.001Z,97062.69
2023-05-17T23:13:38.674Z,97052.31
2023-05-17T23:16:08.303Z,97066.91
2023-05-17T23:18:38.515Z,97059.06
2023-05-17T23:21:07.069Z,97062.97
2023-05-17T23:23:38.355Z,97049.91
2023-05-17T23:26:07.316Z,97052.66
2023-05-17T23:28:38.131Z,97050.41
2023-05-17T23:31:08.968Z,97050.25
2023-05-17T23:33:37.389Z,97038.38
2023-05-17T23:36:07.238Z,97036.31
2023-05-17T23:38:35.619Z,97032.63
2023-05-17T23:41:05.974Z,97034.09
2023-05-17T23:43:35.815Z,97028.91
2023-05-17T23:46:05.466Z,97031.63
2023-05-17T23:48:35.164Z,97032.03
2023-05-17T23:51:05.192Z,97040.84
2023-05-17T23:53:34.384Z,97027.13
2023-05-17T23:56:03.097Z,97036.53
2023-05-17T23:58:32.405Z,97031.75
